sensor_id;sensor_type;location;lat;lon;timestamp;temperature;humidity
49042;DHT22;34859;51.608;11.462;2022-12-13T00:00:56;-6.70;99.90
49042;DHT22;34859;51.608;11.462;2022-12-13T00:03:41;-6.70;99.90
49042;DHT22;34859;51.608;11.462;2022-12-13T00:06:25;-6.80;99.90
49042;DHT22;34859;51.608;11.462;2022-12-13T00:09:09;-6.80;99.90
49042;DHT22;34859;51.608;11.462;2022-12-13T00:11:56;-6.90;99.90
49042;DHT22;34859;51.608;11.462;2022-12-13T00:14:40;-6.90;99.90
49042;DHT22;34859;51.608;11.462;2022-12-13T00:17:24;-6.90;99.90
49042;DHT22;34859;51.608;11.462;2022-12-13T00:20:08;-6.80;99.90
49042;DHT22;34859;51.608;11.462;2022-12-13T00:22:52;-6.90;99.90
49042;DHT22;34859;51.608;11.462;2022-12-13T00:25:37;-6.90;99.90
49042;DHT22;34859;51.608;11.462;2022-12-13T00:28:21;-6.90;99.90
49042;DHT22;34859;51.608;11.462;2022-12-13T00:31:05;-6.90;99.90
49042;DHT22;34859;51.608;11.462;2022-12-13T00:33:50;-6.90;99.90
49042;DHT22;34859;51.608;11.462;2022-12-13T00:36:34;-6.90;99.90
49042;DHT22;34859;51.608;11.462;2022-12-13T00:39:19;-7.00;99.90
49042;DHT22;34859;51.608;11.462;2022-12-13T00:42:03;-7.00;99.90
49042;DHT22;34859;51.608;11.462;2022-12-13T00:44:47;-7.00;99.90
49042;DHT22;34859;51.608;11.462;2022-12-13T00:47:31;-7.10;99.90
49042;DHT22;34859;51.608;11.462;2022-12-13T00:50:16;-7.10;99.90
49042;DHT22;34859;51.608;11.462;2022-12-13T00:53:00;-7.10;99.90
49042;DHT22;34859;51.608;11.462;2022-12-13T00:55:45;-7.20;99.90
49042;DHT22;34859;51.608;11.462;2022-12-13T00:58:29;-7.20;99.90
49042;DHT22;34859;51.608;11.462;2022-12-13T01:01:13;-7.20;99.90
49042;DHT22;34859;51.608;11.462;2022-12-13T01:03:59;-7.20;99.90
49042;DHT22;34859;51.608;11.462;2022-12-13T01:06:44;-7.20;99.90
49042;DHT22;34859;51.608;11.462;2022-12-13T01:09:29;-7.20;99.90
49042;DHT22;34859;51.608;11.462;2022-12-13T01:12:15;-7.20;99.90
49042;DHT22;34859;51.608;11.462;2022-12-13T01:15:00;-7.20;99.90
49042;DHT22;34859;51.608;11.462;2022-12-13T01:17:44;-7.20;99.90
49042;DHT22;34859;51.608;11.462;2022-12-13T01:20:29;-7.20;99.90
49042;DHT22;34859;51.608;11.462;2022-12-13T01:23:14;-7.20;99.90
49042;DHT22;34859;51.608;11.462;2022-12-13T01:26:00;-7.30;99.90
49042;DHT22;34859;51.608;11.462;2022-12-13T01:28:44;-7.40;99.90
49042;DHT22;34859;51.608;11.462;2022-12-13T01:31:29;-7.40;99.90
49042;DHT22;34859;51.608;11.462;2022-12-13T01:34:14;-7.40;99.90
49042;DHT22;34859;51.608;11.462;2022-12-13T01:36:58;-7.30;99.90
49042;DHT22;34859;51.608;11.462;2022-12-13T01:39:43;-7.40;99.90
49042;DHT22;34859;51.608;11.462;2022-12-13T01:42:27;-7.40;99.90
49042;DHT22;34859;51.608;11.462;2022-12-13T01:48:00;-7.50;99.90
49042;DHT22;34859;51.608;11.462;2022-12-13T01:50:46;-7.50;99.90
49042;DHT22;34859;51.608;11.462;2022-12-13T01:53:32;-7.60;99.90
49042;DHT22;34859;51.608;11.462;2022-12-13T01:56:20;-7.60;99.90
49042;DHT22;34859;51.608;11.462;2022-12-13T01:59:06;-7.60;99.90
49042;DHT22;34859;51.608;11.462;2022-12-13T02:01:51;-7.60;99.90
49042;DHT22;34859;51.608;11.462;2022-12-13T02:04:40;-7.60;99.90
49042;DHT22;34859;51.608;11.462;2022-12-13T02:07:28;-7.60;99.90
49042;DHT22;34859;51.608;11.462;2022-12-13T02:10:13;-7.60;99.90
49042;DHT22;34859;51.608;11.462;2022-12-13T02:12:58;-7.70;99.90
49042;DHT22;34859;51.608;11.462;2022-12-13T02:21:39;-7.70;99.90
49042;DHT22;34859;51.608;11.462;2022-12-13T02:30:25;-7.70;99.90
49042;DHT22;34859;51.608;11.462;2022-12-13T02:36:05;-7.80;99.90
49042;DHT22;34859;51.608;11.462;2022-12-13T02:44:24;-7.90;99.90
49042;DHT22;34859;51.608;11.462;2022-12-13T02:47:13;-7.80;99.90
49042;DHT22;34859;51.608;11.462;2022-12-13T02:49:59;-7.80;99.90
49042;DHT22;34859;51.608;11.462;2022-12-13T02:52:44;-7.80;99.90
49042;DHT22;34859;51.608;11.462;2022-12-13T02:55:29;-7.90;99.90
49042;DHT22;34859;51.608;11.462;2022-12-13T02:58:16;-7.90;99.90
49042;DHT22;34859;51.608;11.462;2022-12-13T03:04:19;-7.90;99.90
49042;DHT22;34859;51.608;11.462;2022-12-13T03:07:16;-7.90;99.90
49042;DHT22;34859;51.608;11.462;2022-12-13T03:10:05;-7.90;99.90
49042;DHT22;34859;51.608;11.462;2022-12-13T03:12:55;-7.90;99.90
49042;DHT22;34859;51.608;11.462;2022-12-13T03:18:52;-7.90;99.90
49042;DHT22;34859;51.608;11.462;2022-12-13T03:21:42;-7.90;99.90
49042;DHT22;34859;51.608;11.462;2022-12-13T03:24:26;-8.00;99.90
49042;DHT22;34859;51.608;11.462;2022-12-13T03:27:11;-8.00;99.90
49042;DHT22;34859;51.608;11.462;2022-12-13T03:29:56;-8.00;99.90
49042;DHT22;34859;51.608;11.462;2022-12-13T03:32:41;-8.10;99.90
49042;DHT22;34859;51.608;11.462;2022-12-13T03:35:25;-8.00;99.90
49042;DHT22;34859;51.608;11.462;2022-12-13T03:38:10;-8.00;99.90
49042;DHT22;34859;51.608;11.462;2022-12-13T03:40:56;-8.00;99.90
49042;DHT22;34859;51.608;11.462;2022-12-13T03:43:41;-8.00;99.90
49042;DHT22;34859;51.608;11.462;2022-12-13T03:46:25;-8.10;99.90
49042;DHT22;34859;51.608;11.462;2022-12-13T03:49:10;-8.10;99.90
49042;DHT22;34859;51.608;11.462;2022-12-13T03:51:54;-8.10;99.90
49042;DHT22;34859;51.608;11.462;2022-12-13T03:54:38;-8.10;99.90
49042;DHT22;34859;51.608;11.462;2022-12-13T03:57:22;-8.10;99.90
49042;DHT22;34859;51.608;11.462;2022-12-13T04:00:06;-8.10;99.90
49042;DHT22;34859;51.608;11.462;2022-12-13T04:02:51;-8.10;99.90
49042;DHT22;34859;51.608;11.462;2022-12-13T04:05:35;-8.20;99.90
49042;DHT22;34859;51.608;11.462;2022-12-13T04:08:20;-8.20;99.90
49042;DHT22;34859;51.608;11.462;2022-12-13T04:11:04;-8.20;99.90
49042;DHT22;34859;51.608;11.462;2022-12-13T04:14:07;-8.20;99.90
49042;DHT22;34859;51.608;11.462;2022-12-13T04:16:51;-8.20;99.90
49042;DHT22;34859;51.608;11.462;2022-12-13T04:19:35;-8.20;99.90
49042;DHT22;34859;51.608;11.462;2022-12-13T04:22:19;-8.30;99.90
49042;DHT22;34859;51.608;11.462;2022-12-13T04:25:04;-8.20;99.90
49042;DHT22;34859;51.608;11.462;2022-12-13T04:27:48;-8.20;99.90
49042;DHT22;34859;51.608;11.462;2022-12-13T04:30:33;-8.30;99.90
49042;DHT22;34859;51.608;11.462;2022-12-13T04:33:17;-8.30;99.90
49042;DHT22;34859;51.608;11.462;2022-12-13T04:36:03;-8.30;99.90
49042;DHT22;34859;51.608;11.462;2022-12-13T04:38:47;-8.40;99.90
49042;DHT22;34859;51.608;11.462;2022-12-13T04:41:35;-8.50;99.90
49042;DHT22;34859;51.608;11.462;2022-12-13T04:44:20;-8.50;99.90
49042;DHT22;34859;51.608;11.462;2022-12-13T04:47:04;-8.50;99.90
49042;DHT22;34859;51.608;11.462;2022-12-13T04:49:48;-8.50;99.90
49042;DHT22;34859;51.608;11.462;2022-12-13T04:52:33;-8.50;99.90
49042;DHT22;34859;51.608;11.462;2022-12-13T04:55:17;-8.60;99.90
49042;DHT22;34859;51.608;11.462;2022-12-13T04:58:01;-8.60;99.90
49042;DHT22;34859;51.608;11.462;2022-12-13T05:00:45;-8.50;99.90
49042;DHT22;34859;51.608;11.462;2022-12-13T05:03:29;-8.50;99.90
49042;DHT22;34859;51.608;11.462;2022-12-13T05:06:14;-8.50;99.90
49042;DHT22;34859;51.608;11.462;2022-12-13T05:08:59;-8.50;99.90
49042;DHT22;34859;51.608;11.462;2022-12-13T05:11:43;-8.50;99.90
49042;DHT22;34859;51.608;11.462;2022-12-13T05:14:31;-8.50;99.90
49042;DHT22;34859;51.608;11.462;2022-12-13T05:17:16;-8.60;99.90
49042;DHT22;34859;51.608;11.462;2022-12-13T05:20:00;-8.50;99.90
49042;DHT22;34859;51.608;11.462;2022-12-13T05:22:44;-8.60;99.90
49042;DHT22;34859;51.608;11.462;2022-12-13T05:25:28;-8.60;99.90
49042;DHT22;34859;51.608;11.462;2022-12-13T05:28:12;-8.60;99.90
49042;DHT22;34859;51.608;11.462;2022-12-13T05:30:57;-8.60;99.90
49042;DHT22;34859;51.608;11.462;2022-12-13T05:33:42;-8.60;99.90
49042;DHT22;34859;51.608;11.462;2022-12-13T05:36:26;-8.60;99.90
49042;DHT22;34859;51.608;11.462;2022-12-13T05:39:10;-8.70;99.90
49042;DHT22;34859;51.608;11.462;2022-12-13T05:41:54;-8.70;99.90
49042;DHT22;34859;51.608;11.462;2022-12-13T05:44:39;-8.70;99.90
49042;DHT22;34859;51.608;11.462;2022-12-13T05:47:23;-8.70;99.90
49042;DHT22;34859;51.608;11.462;2022-12-13T05:50:07;-8.80;99.90
49042;DHT22;34859;51.608;11.462;2022-12-13T05:52:52;-8.80;99.90
49042;DHT22;34859;51.608;11.462;2022-12-13T05:55:36;-8.80;99.90
49042;DHT22;34859;51.608;11.462;2022-12-13T05:58:20;-8.90;99.90
49042;DHT22;34859;51.608;11.462;2022-12-13T06:01:05;-8.90;99.90
49042;DHT22;34859;51.608;11.462;2022-12-13T06:03:50;-8.90;99.90
49042;DHT22;34859;51.608;11.462;2022-12-13T06:06:34;-8.90;99.90
49042;DHT22;34859;51.608;11.462;2022-12-13T06:09:19;-8.90;99.90
49042;DHT22;34859;51.608;11.462;2022-12-13T06:12:03;-8.90;99.90
49042;DHT22;34859;51.608;11.462;2022-12-13T06:14:47;-9.00;99.90
49042;DHT22;34859;51.608;11.462;2022-12-13T06:17:32;-9.00;99.90
49042;DHT22;34859;51.608;11.462;2022-12-13T06:20:17;-9.00;99.90
49042;DHT22;34859;51.608;11.462;2022-12-13T06:23:01;-9.00;99.90
49042;DHT22;34859;51.608;11.462;2022-12-13T06:25:45;-9.00;99.90
49042;DHT22;34859;51.608;11.462;2022-12-13T06:28:29;-9.00;99.90
49042;DHT22;34859;51.608;11.462;2022-12-13T06:31:13;-9.00;99.90
49042;DHT22;34859;51.608;11.462;2022-12-13T06:34:01;-9.10;99.90
49042;DHT22;34859;51.608;11.462;2022-12-13T06:36:45;-9.10;99.90
49042;DHT22;34859;51.608;11.462;2022-12-13T06:39:30;-9.00;99.90
49042;DHT22;34859;51.608;11.462;2022-12-13T06:42:15;-9.10;99.90
49042;DHT22;34859;51.608;11.462;2022-12-13T06:44:59;-9.10;99.90
49042;DHT22;34859;51.608;11.462;2022-12-13T06:47:43;-9.10;99.90
49042;DHT22;34859;51.608;11.462;2022-12-13T06:50:27;-9.10;99.90
49042;DHT22;34859;51.608;11.462;2022-12-13T06:53:12;-9.00;99.90
49042;DHT22;34859;51.608;11.462;2022-12-13T06:56:01;-9.10;99.90
49042;DHT22;34859;51.608;11.462;2022-12-13T06:58:45;-9.10;99.90
49042;DHT22;34859;51.608;11.462;2022-12-13T07:01:29;-9.10;99.90
49042;DHT22;34859;51.608;11.462;2022-12-13T07:04:14;-9.10;99.90
49042;DHT22;34859;51.608;11.462;2022-12-13T07:06:58;-9.10;99.90
49042;DHT22;34859;51.608;11.462;2022-12-13T07:09:42;-9.10;99.90
49042;DHT22;34859;51.608;11.462;2022-12-13T07:12:26;-9.10;99.90
49042;DHT22;34859;51.608;11.462;2022-12-13T07:15:10;-9.10;99.90
49042;DHT22;34859;51.608;11.462;2022-12-13T07:17:54;-9.10;99.90
49042;DHT22;34859;51.608;11.462;2022-12-13T07:20:39;-9.10;99.90
49042;DHT22;34859;51.608;11.462;2022-12-13T07:23:23;-9.00;99.90
49042;DHT22;34859;51.608;11.462;2022-12-13T07:26:07;-9.10;99.90
49042;DHT22;34859;51.608;11.462;2022-12-13T07:28:52;-9.10;99.90
49042;DHT22;34859;51.608;11.462;2022-12-13T07:31:36;-9.00;99.90
49042;DHT22;34859;51.608;11.462;2022-12-13T07:34:20;-9.00;99.90
49042;DHT22;34859;51.608;11.462;2022-12-13T07:37:04;-9.10;99.90
49042;DHT22;34859;51.608;11.462;2022-12-13T07:39:48;-9.10;99.90
49042;DHT22;34859;51.608;11.462;2022-12-13T07:42:33;-9.00;99.90
49042;DHT22;34859;51.608;11.462;2022-12-13T07:45:18;-9.00;99.90
49042;DHT22;34859;51.608;11.462;2022-12-13T07:48:03;-9.00;99.90
49042;DHT22;34859;51.608;11.462;2022-12-13T07:50:47;-8.90;99.90
49042;DHT22;34859;51.608;11.462;2022-12-13T07:53:31;-8.90;99.90
49042;DHT22;34859;51.608;11.462;2022-12-13T07:56:16;-8.80;99.90
49042;DHT22;34859;51.608;11.462;2022-12-13T07:59:00;-8.90;99.90
49042;DHT22;34859;51.608;11.462;2022-12-13T08:01:44;-8.80;99.90
49042;DHT22;34859;51.608;11.462;2022-12-13T08:04:29;-8.70;99.90
49042;DHT22;34859;51.608;11.462;2022-12-13T08:07:13;-8.70;99.90
49042;DHT22;34859;51.608;11.462;2022-12-13T08:09:59;-8.60;99.90
49042;DHT22;34859;51.608;11.462;2022-12-13T08:12:43;-8.50;99.90
49042;DHT22;34859;51.608;11.462;2022-12-13T08:15:27;-8.50;99.90
49042;DHT22;34859;51.608;11.462;2022-12-13T08:18:11;-8.50;99.90
49042;DHT22;34859;51.608;11.462;2022-12-13T08:20:59;-8.40;99.90
49042;DHT22;34859;51.608;11.462;2022-12-13T08:23:43;-8.30;99.90
49042;DHT22;34859;51.608;11.462;2022-12-13T08:26:27;-8.20;99.90
49042;DHT22;34859;51.608;11.462;2022-12-13T08:29:12;-8.40;99.90
49042;DHT22;34859;51.608;11.462;2022-12-13T08:31:56;-8.30;99.90
49042;DHT22;34859;51.608;11.462;2022-12-13T08:34:41;-8.20;99.90
49042;DHT22;34859;51.608;11.462;2022-12-13T08:37:24;-8.10;99.90
49042;DHT22;34859;51.608;11.462;2022-12-13T08:40:09;-8.20;99.90
49042;DHT22;34859;51.608;11.462;2022-12-13T08:42:56;-8.10;99.90
49042;DHT22;34859;51.608;11.462;2022-12-13T08:45:40;-8.00;99.90
49042;DHT22;34859;51.608;11.462;2022-12-13T08:48:24;-8.00;99.90
49042;DHT22;34859;51.608;11.462;2022-12-13T08:51:09;-7.90;99.90
49042;DHT22;34859;51.608;11.462;2022-12-13T08:53:55;-8.00;99.90
49042;DHT22;34859;51.608;11.462;2022-12-13T08:56:39;-7.90;99.90
49042;DHT22;34859;51.608;11.462;2022-12-13T08:59:23;-7.80;99.90
49042;DHT22;34859;51.608;11.462;2022-12-13T09:02:10;-7.70;99.90
49042;DHT22;34859;51.608;11.462;2022-12-13T09:04:55;-7.50;99.90
49042;DHT22;34859;51.608;11.462;2022-12-13T09:07:39;-7.40;99.90
49042;DHT22;34859;51.608;11.462;2022-12-13T09:10:24;-7.30;99.90
49042;DHT22;34859;51.608;11.462;2022-12-13T09:13:08;-7.20;99.90
49042;DHT22;34859;51.608;11.462;2022-12-13T09:15:52;-7.00;99.90
49042;DHT22;34859;51.608;11.462;2022-12-13T09:18:36;-7.00;99.90
49042;DHT22;34859;51.608;11.462;2022-12-13T09:21:20;-7.00;99.90
49042;DHT22;34859;51.608;11.462;2022-12-13T09:24:05;-7.00;99.90
49042;DHT22;34859;51.608;11.462;2022-12-13T09:26:49;-6.90;99.90
49042;DHT22;34859;51.608;11.462;2022-12-13T09:29:33;-6.80;99.90
49042;DHT22;34859;51.608;11.462;2022-12-13T09:32:17;-6.70;99.90
49042;DHT22;34859;51.608;11.462;2022-12-13T09:35:02;-6.60;99.90
49042;DHT22;34859;51.608;11.462;2022-12-13T09:37:46;-6.50;99.90
49042;DHT22;34859;51.608;11.462;2022-12-13T09:40:30;-6.30;99.90
49042;DHT22;34859;51.608;11.462;2022-12-13T09:43:18;-6.30;99.90
49042;DHT22;34859;51.608;11.462;2022-12-13T09:46:06;-6.20;99.90
49042;DHT22;34859;51.608;11.462;2022-12-13T09:48:51;-6.20;99.90
49042;DHT22;34859;51.608;11.462;2022-12-13T09:51:36;-6.20;99.90
49042;DHT22;34859;51.608;11.462;2022-12-13T09:54:21;-6.10;99.90
49042;DHT22;34859;51.608;11.462;2022-12-13T09:57:20;-6.10;99.90
49042;DHT22;34859;51.608;11.462;2022-12-13T10:00:06;-6.00;99.90
49042;DHT22;34859;51.608;11.462;2022-12-13T10:02:51;-5.90;99.90
49042;DHT22;34859;51.608;11.462;2022-12-13T10:05:36;-5.90;99.90
49042;DHT22;34859;51.608;11.462;2022-12-13T10:08:22;-5.70;99.90
49042;DHT22;34859;51.608;11.462;2022-12-13T10:11:10;-5.60;99.90
49042;DHT22;34859;51.608;11.462;2022-12-13T10:14:29;-5.50;99.90
49042;DHT22;34859;51.608;11.462;2022-12-13T10:17:06;-5.40;99.90
49042;DHT22;34859;51.608;11.462;2022-12-13T10:19:51;-5.30;99.90
49042;DHT22;34859;51.608;11.462;2022-12-13T10:22:35;-5.20;99.90
49042;DHT22;34859;51.608;11.462;2022-12-13T10:25:38;-5.10;99.90
49042;DHT22;34859;51.608;11.462;2022-12-13T10:28:28;-5.10;99.90
49042;DHT22;34859;51.608;11.462;2022-12-13T10:31:16;-5.00;99.90
49042;DHT22;34859;51.608;11.462;2022-12-13T10:34:01;-4.90;99.90
49042;DHT22;34859;51.608;11.462;2022-12-13T10:36:45;-4.80;99.90
49042;DHT22;34859;51.608;11.462;2022-12-13T10:39:37;-4.70;99.90
49042;DHT22;34859;51.608;11.462;2022-12-13T10:42:22;-4.60;99.90
49042;DHT22;34859;51.608;11.462;2022-12-13T10:45:13;-4.60;99.90
49042;DHT22;34859;51.608;11.462;2022-12-13T10:47:57;-4.50;99.90
49042;DHT22;34859;51.608;11.462;2022-12-13T10:50:42;-4.30;99.90
49042;DHT22;34859;51.608;11.462;2022-12-13T10:53:30;-4.30;99.90
49042;DHT22;34859;51.608;11.462;2022-12-13T10:56:15;-4.20;99.90
49042;DHT22;34859;51.608;11.462;2022-12-13T10:59:10;-4.10;99.90
49042;DHT22;34859;51.608;11.462;2022-12-13T11:01:55;-4.10;99.90
49042;DHT22;34859;51.608;11.462;2022-12-13T11:04:39;-4.00;99.90
49042;DHT22;34859;51.608;11.462;2022-12-13T11:07:27;-3.90;99.90
49042;DHT22;34859;51.608;11.462;2022-12-13T11:13:03;-3.80;99.90
49042;DHT22;34859;51.608;11.462;2022-12-13T11:15:50;-3.70;99.90
49042;DHT22;34859;51.608;11.462;2022-12-13T11:18:36;-3.60;99.90
49042;DHT22;34859;51.608;11.462;2022-12-13T11:21:25;-3.50;99.90
49042;DHT22;34859;51.608;11.462;2022-12-13T11:24:13;-3.40;99.90
49042;DHT22;34859;51.608;11.462;2022-12-13T11:27:01;-3.30;99.90
49042;DHT22;34859;51.608;11.462;2022-12-13T11:29:50;-3.20;99.90
49042;DHT22;34859;51.608;11.462;2022-12-13T11:35:32;-3.00;99.90
49042;DHT22;34859;51.608;11.462;2022-12-13T11:41:21;-2.80;99.90
49042;DHT22;34859;51.608;11.462;2022-12-13T11:46:57;-2.60;99.90
49042;DHT22;34859;51.608;11.462;2022-12-13T11:49:43;-2.60;99.90
49042;DHT22;34859;51.608;11.462;2022-12-13T11:52:35;-2.50;99.90
49042;DHT22;34859;51.608;11.462;2022-12-13T11:58:11;-2.40;99.90
49042;DHT22;34859;51.608;11.462;2022-12-13T12:01:03;-2.30;99.90
49042;DHT22;34859;51.608;11.462;2022-12-13T12:03:53;-2.30;99.90
49042;DHT22;34859;51.608;11.462;2022-12-13T12:06:42;-2.30;99.90
49042;DHT22;34859;51.608;11.462;2022-12-13T12:09:28;-2.10;99.90
49042;DHT22;34859;51.608;11.462;2022-12-13T12:12:15;-2.10;99.90
49042;DHT22;34859;51.608;11.462;2022-12-13T12:17:45;-1.90;99.90
49042;DHT22;34859;51.608;11.462;2022-12-13T12:26:13;-1.80;99.90
49042;DHT22;34859;51.608;11.462;2022-12-13T12:34:53;-1.70;99.90
49042;DHT22;34859;51.608;11.462;2022-12-13T12:52:18;-1.60;99.90
49042;DHT22;34859;51.608;11.462;2022-12-13T12:58:25;-1.60;99.90
49042;DHT22;34859;51.608;11.462;2022-12-13T13:04:14;-1.50;99.90
49042;DHT22;34859;51.608;11.462;2022-12-13T13:07:02;-1.50;99.90
49042;DHT22;34859;51.608;11.462;2022-12-13T13:09:49;-1.50;99.90
49042;DHT22;34859;51.608;11.462;2022-12-13T13:12:36;-1.60;99.90
49042;DHT22;34859;51.608;11.462;2022-12-13T13:16:04;-1.50;99.90
49042;DHT22;34859;51.608;11.462;2022-12-13T13:21:33;-1.70;99.90
49042;DHT22;34859;51.608;11.462;2022-12-13T13:24:24;-1.60;99.90
49042;DHT22;34859;51.608;11.462;2022-12-13T13:29:53;-1.60;99.90
49042;DHT22;34859;51.608;11.462;2022-12-13T13:32:48;-1.60;99.90
49042;DHT22;34859;51.608;11.462;2022-12-13T13:47:13;-1.70;99.90
49042;DHT22;34859;51.608;11.462;2022-12-13T13:55:53;-1.90;99.90
49042;DHT22;34859;51.608;11.462;2022-12-13T13:58:55;-1.90;99.90
49042;DHT22;34859;51.608;11.462;2022-12-13T14:01:49;-1.90;99.90
49042;DHT22;34859;51.608;11.462;2022-12-13T14:07:44;-2.00;99.90
49042;DHT22;34859;51.608;11.462;2022-12-13T14:19:10;-2.20;99.90
49042;DHT22;34859;51.608;11.462;2022-12-13T14:27:35;-2.40;99.90
49042;DHT22;34859;51.608;11.462;2022-12-13T14:30:23;-2.50;99.90
49042;DHT22;34859;51.608;11.462;2022-12-13T14:33:14;-2.60;99.90
49042;DHT22;34859;51.608;11.462;2022-12-13T14:36:00;-2.60;99.90
49042;DHT22;34859;51.608;11.462;2022-12-13T14:38:47;-2.60;99.90
49042;DHT22;34859;51.608;11.462;2022-12-13T14:41:31;-2.70;99.90
49042;DHT22;34859;51.608;11.462;2022-12-13T14:44:23;-2.70;99.90
49042;DHT22;34859;51.608;11.462;2022-12-13T14:47:07;-2.80;99.90
49042;DHT22;34859;51.608;11.462;2022-12-13T14:49:54;-2.80;99.90
49042;DHT22;34859;51.608;11.462;2022-12-13T14:52:38;-2.90;99.90
49042;DHT22;34859;51.608;11.462;2022-12-13T14:55:27;-3.00;99.90
49042;DHT22;34859;51.608;11.462;2022-12-13T14:58:15;-3.20;99.90
49042;DHT22;34859;51.608;11.462;2022-12-13T15:01:00;-3.20;99.90
49042;DHT22;34859;51.608;11.462;2022-12-13T15:03:44;-3.30;99.90
49042;DHT22;34859;51.608;11.462;2022-12-13T15:06:28;-3.30;99.90
49042;DHT22;34859;51.608;11.462;2022-12-13T15:09:12;-3.30;99.90
49042;DHT22;34859;51.608;11.462;2022-12-13T15:11:57;-3.40;99.90
49042;DHT22;34859;51.608;11.462;2022-12-13T15:14:42;-3.40;99.90
49042;DHT22;34859;51.608;11.462;2022-12-13T15:17:33;-3.50;99.90
49042;DHT22;34859;51.608;11.462;2022-12-13T15:20:25;-3.60;99.90
49042;DHT22;34859;51.608;11.462;2022-12-13T15:23:23;-3.70;99.90
49042;DHT22;34859;51.608;11.462;2022-12-13T15:28:54;-3.90;99.90
49042;DHT22;34859;51.608;11.462;2022-12-13T15:31:38;-4.00;99.90
49042;DHT22;34859;51.608;11.462;2022-12-13T15:39:54;-4.40;99.90
49042;DHT22;34859;51.608;11.462;2022-12-13T15:42:42;-4.70;99.90
49042;DHT22;34859;51.608;11.462;2022-12-13T15:45:27;-5.00;99.90
49042;DHT22;34859;51.608;11.462;2022-12-13T15:51:07;-5.30;99.90
49042;DHT22;34859;51.608;11.462;2022-12-13T15:56:59;-5.70;99.90
49042;DHT22;34859;51.608;11.462;2022-12-13T15:59:45;-5.70;99.90
49042;DHT22;34859;51.608;11.462;2022-12-13T16:02:29;-5.70;99.90
49042;DHT22;34859;51.608;11.462;2022-12-13T16:05:19;-5.80;99.90
49042;DHT22;34859;51.608;11.462;2022-12-13T16:08:05;-5.90;99.90
49042;DHT22;34859;51.608;11.462;2022-12-13T16:10:50;-6.00;99.90
49042;DHT22;34859;51.608;11.462;2022-12-13T16:13:36;-6.20;99.90
49042;DHT22;34859;51.608;11.462;2022-12-13T16:16:22;-6.20;99.90
49042;DHT22;34859;51.608;11.462;2022-12-13T16:19:12;-6.10;99.90
49042;DHT22;34859;51.608;11.462;2022-12-13T16:21:58;-6.30;99.90
49042;DHT22;34859;51.608;11.462;2022-12-13T16:24:42;-6.40;99.90
49042;DHT22;34859;51.608;11.462;2022-12-13T16:27:26;-6.60;99.90
49042;DHT22;34859;51.608;11.462;2022-12-13T16:30:20;-6.70;99.90
49042;DHT22;34859;51.608;11.462;2022-12-13T16:33:05;-6.80;99.90
49042;DHT22;34859;51.608;11.462;2022-12-13T16:35:50;-7.00;99.90
49042;DHT22;34859;51.608;11.462;2022-12-13T16:38:34;-7.00;99.90
49042;DHT22;34859;51.608;11.462;2022-12-13T16:41:19;-7.10;99.90
49042;DHT22;34859;51.608;11.462;2022-12-13T16:44:05;-7.20;99.90
49042;DHT22;34859;51.608;11.462;2022-12-13T16:46:49;-7.10;99.90
49042;DHT22;34859;51.608;11.462;2022-12-13T16:49:33;-7.30;99.90
49042;DHT22;34859;51.608;11.462;2022-12-13T16:52:18;-7.40;99.90
49042;DHT22;34859;51.608;11.462;2022-12-13T16:55:05;-7.40;99.90
49042;DHT22;34859;51.608;11.462;2022-12-13T16:57:56;-7.50;99.90
49042;DHT22;34859;51.608;11.462;2022-12-13T17:00:41;-7.60;99.90
49042;DHT22;34859;51.608;11.462;2022-12-13T17:03:26;-7.70;99.90
49042;DHT22;34859;51.608;11.462;2022-12-13T17:06:10;-7.70;99.90
49042;DHT22;34859;51.608;11.462;2022-12-13T17:08:55;-7.60;99.90
49042;DHT22;34859;51.608;11.462;2022-12-13T17:11:39;-7.50;99.90
49042;DHT22;34859;51.608;11.462;2022-12-13T17:14:23;-7.50;99.90
49042;DHT22;34859;51.608;11.462;2022-12-13T17:17:07;-7.30;99.90
49042;DHT22;34859;51.608;11.462;2022-12-13T17:19:51;-7.20;99.90
49042;DHT22;34859;51.608;11.462;2022-12-13T17:22:35;-7.20;99.90
49042;DHT22;34859;51.608;11.462;2022-12-13T17:25:20;-7.10;99.90
49042;DHT22;34859;51.608;11.462;2022-12-13T17:28:07;-7.10;99.90
49042;DHT22;34859;51.608;11.462;2022-12-13T17:30:51;-7.10;99.90
49042;DHT22;34859;51.608;11.462;2022-12-13T17:33:36;-7.20;99.90
49042;DHT22;34859;51.608;11.462;2022-12-13T17:36:20;-7.30;99.90
49042;DHT22;34859;51.608;11.462;2022-12-13T17:39:04;-7.30;99.90
49042;DHT22;34859;51.608;11.462;2022-12-13T17:41:49;-7.40;99.90
49042;DHT22;34859;51.608;11.462;2022-12-13T17:44:33;-7.50;99.90
49042;DHT22;34859;51.608;11.462;2022-12-13T17:47:17;-7.70;99.90
49042;DHT22;34859;51.608;11.462;2022-12-13T17:50:01;-7.70;99.90
49042;DHT22;34859;51.608;11.462;2022-12-13T17:52:45;-7.70;99.90
49042;DHT22;34859;51.608;11.462;2022-12-13T17:55:30;-7.70;99.90
49042;DHT22;34859;51.608;11.462;2022-12-13T17:58:14;-7.70;99.90
49042;DHT22;34859;51.608;11.462;2022-12-13T18:01:07;-7.80;99.90
49042;DHT22;34859;51.608;11.462;2022-12-13T18:03:53;-7.70;99.90
49042;DHT22;34859;51.608;11.462;2022-12-13T18:06:38;-7.70;99.90
49042;DHT22;34859;51.608;11.462;2022-12-13T18:09:23;-7.90;99.90
49042;DHT22;34859;51.608;11.462;2022-12-13T18:12:07;-8.00;99.90
49042;DHT22;34859;51.608;11.462;2022-12-13T18:14:51;-8.10;99.90
49042;DHT22;34859;51.608;11.462;2022-12-13T18:17:36;-8.10;99.90
49042;DHT22;34859;51.608;11.462;2022-12-13T18:20:20;-8.10;99.90
49042;DHT22;34859;51.608;11.462;2022-12-13T18:23:05;-8.10;99.90
49042;DHT22;34859;51.608;11.462;2022-12-13T18:25:49;-8.30;99.90
49042;DHT22;34859;51.608;11.462;2022-12-13T18:28:34;-8.50;99.90
49042;DHT22;34859;51.608;11.462;2022-12-13T18:31:19;-8.50;99.90
49042;DHT22;34859;51.608;11.462;2022-12-13T18:34:04;-8.60;99.90
49042;DHT22;34859;51.608;11.462;2022-12-13T18:36:49;-8.70;99.90
49042;DHT22;34859;51.608;11.462;2022-12-13T18:39:33;-8.80;99.90
49042;DHT22;34859;51.608;11.462;2022-12-13T18:42:17;-8.80;99.90
49042;DHT22;34859;51.608;11.462;2022-12-13T18:45:02;-8.80;99.90
49042;DHT22;34859;51.608;11.462;2022-12-13T18:47:46;-8.90;99.90
49042;DHT22;34859;51.608;11.462;2022-12-13T18:50:31;-9.00;99.90
49042;DHT22;34859;51.608;11.462;2022-12-13T18:53:16;-9.10;99.90
49042;DHT22;34859;51.608;11.462;2022-12-13T18:56:04;-9.10;99.90
49042;DHT22;34859;51.608;11.462;2022-12-13T18:58:49;-9.00;99.90
49042;DHT22;34859;51.608;11.462;2022-12-13T19:01:33;-8.90;99.90
49042;DHT22;34859;51.608;11.462;2022-12-13T19:04:18;-9.00;99.90
49042;DHT22;34859;51.608;11.462;2022-12-13T19:07:02;-9.10;99.90
49042;DHT22;34859;51.608;11.462;2022-12-13T19:09:46;-9.10;99.90
49042;DHT22;34859;51.608;11.462;2022-12-13T19:12:31;-9.10;99.90
49042;DHT22;34859;51.608;11.462;2022-12-13T19:15:15;-9.10;99.90
49042;DHT22;34859;51.608;11.462;2022-12-13T19:17:59;-8.90;99.90
49042;DHT22;34859;51.608;11.462;2022-12-13T19:20:47;-9.00;99.90
49042;DHT22;34859;51.608;11.462;2022-12-13T19:23:32;-9.10;99.90